KPVU

Provo Municipal Airport

Provo, Utah, USA
KPVU 192121Z 1921/2018 20008KT P6SM SKC FM200100 30011KT P6SM SKC FM201300 VRB05KT P6SM SKC
Issued Valid From Valid To
Sep-19 @ 21:21 UTC
(an hour ago)
Sep-19 @ 21:00 UTC
(2 hours ago)
Sep-20 @ 18:00 UTC
(in 19 hours)
Sep-19 @ 21:00 to Sep-20 @ 01:00
KPVU 192121Z 1921/2018 20008KT P6SM SKC
Wind Visibility Clouds
200° at 8 knots Greater than 6 miles
  • Clear skies
From Sep-20 @ 01:00 to Sep-20 @ 13:00
FM200100 30011KT P6SM SKC
Wind Visibility Clouds
300° at 11 knots Greater than 6 miles
  • Clear skies
From Sep-20 @ 13:00 to Sep-20 @ 18:00
FM201300 VRB05KT P6SM SKC
Wind Visibility Clouds
Variable at 5 knots Greater than 6 miles
  • Clear skies
KPVU 192121Z 1921/2018 20008KT P6SM SKC FM200100 30011KT P6SM SKC FM201300 VRB05KT P6SM SKC
Issued Sep-19 @ 21:21 UTC
(an hour ago)
Valid From Sep-19 @ 21:00 UTC
(2 hours ago)
Valid To Sep-20 @ 18:00 UTC
(in 19 hours)
Sep-19 @ 21:00 - Sep-20 @ 01:00
Wind Visibility
200° at 8 knots Greater than 6 miles
Clouds
  • Clear skies
From Sep-20 @ 01:00 - Sep-20 @ 13:00
Wind Visibility
300° at 11 knots Greater than 6 miles
Clouds
  • Clear skies
From Sep-20 @ 13:00 - Sep-20 @ 18:00
Wind Visibility
Variable at 5 knots Greater than 6 miles
Clouds
  • Clear skies